Rotterdam, Netherlands

11:11 AM CET on February 23, 2017 (GMT +0100)
Rotterdam | | Change Station

Elev 13 ft 51.95 °N, 4.45 °E | Updated 16 minutes ago

Mostly Cloudy
Mostly Cloudy
48 °F
Feels Like 48 °F
N
23
Wind Variable Wind from SSW

Today
High -- | Low -- °F
--% Chance of Precip.
Yesterday
High -- | Low -- °F
Precip. -- in
Pressure 29.33 in
Visibility 6.2 miles
Clouds Scattered Clouds 700 ft
Mostly Cloudy 900 ft
Mostly Cloudy 1100 ft
Dew Point 46 °F
Humidity 93%
Rainfall 0.00 in
Snow Depth Not available.
7:40 AM 6:11 PM
Waning Crescent, 11% visible
METAR EHRD 230955Z AUTO 21020KT 160V240 9999 SCT007 BKN009 BKN011 09/08 Q0993 TEMPO 4500 RADZ SCT008 BKN012
Pressure 29.33 in
Visibility 6.2 miles
Clouds Scattered Clouds 700 ft
Mostly Cloudy 900 ft
Mostly Cloudy 1100 ft
Dew Point 46 °F
Humidity 93%
Rainfall 0.00 in
Snow Depth Not available.
7:40 AM 6:11 PM
Waning Crescent, 11% visible
METAR EHRD 230955Z AUTO 21020KT 160V240 9999 SCT007 BKN009 BKN011 09/08 Q0993 TEMPO 4500 RADZ SCT008 BKN012

Get Your Daily Forecast Email!

Thanks for signing up!

Be on the lookout for a verification email in your inbox.

You'll start receiving the daily forecast at 8 AM.

×

10-Day Weather Forecast

×

Almanac

Astronomy

Feb. 23, 2017 Rise Set
Actual Time
Civil Twilight
Nautical Twilight
Astronomical Twilight
Moon
Length of Visible Light
Length of Day
Tomorrow will be .
, % of the Moon is Illuminated

Today's Extremes

Country Highs Country Lows

Community

WunderPhotos

Upload Photos

1,962,540 photos uploaded!

WunderBlog® & News

Nearby

Air Quality

  Air Quality AQ Index Pollutant
Not available.

Snow Depth

Station Depth Elevation

Earthquake Activity

City Distance Mag. Time & Date
Minimum magnitude displayed is 2.5.

Coastal Water Temperatures

Place Temperature

Stations

Nearby Weather Stations

Station Location Temp. Windchill Dew Point Humidity Wind Precip. Elev Updated Type